sensor_id;sensor_type;location;lat;lon;timestamp;P1;durP1;ratioP1;P2;durP2;ratioP2
17725;SDS011;8983;53.156;17.960;2024-02-15T00:00:45;21.50;;;11.23;;
17725;SDS011;8983;53.156;17.960;2024-02-15T00:03:13;11.03;;;8.70;;
17725;SDS011;8983;53.156;17.960;2024-02-15T00:05:44;15.67;;;9.03;;
17725;SDS011;8983;53.156;17.960;2024-02-15T00:08:14;13.73;;;6.37;;
17725;SDS011;8983;53.156;17.960;2024-02-15T00:10:42;18.70;;;8.83;;
17725;SDS011;8983;53.156;17.960;2024-02-15T00:13:12;16.63;;;9.63;;
17725;SDS011;8983;53.156;17.960;2024-02-15T00:15:41;11.57;;;8.63;;
17725;SDS011;8983;53.156;17.960;2024-02-15T00:18:09;11.80;;;7.40;;
17725;SDS011;8983;53.156;17.960;2024-02-15T00:20:38;12.70;;;7.10;;
17725;SDS011;8983;53.156;17.960;2024-02-15T00:23:08;15.93;;;8.20;;
17725;SDS011;8983;53.156;17.960;2024-02-15T00:25:36;15.23;;;8.77;;
17725;SDS011;8983;53.156;17.960;2024-02-15T00:28:05;18.07;;;10.30;;
17725;SDS011;8983;53.156;17.960;2024-02-15T00:30:33;29.77;;;9.97;;
17725;SDS011;8983;53.156;17.960;2024-02-15T00:33:02;18.37;;;11.10;;
17725;SDS011;8983;53.156;17.960;2024-02-15T00:35:32;20.77;;;10.53;;
17725;SDS011;8983;53.156;17.960;2024-02-15T00:38:01;20.67;;;9.00;;
17725;SDS011;8983;53.156;17.960;2024-02-15T00:40:31;20.93;;;10.87;;
17725;SDS011;8983;53.156;17.960;2024-02-15T00:42:59;16.93;;;9.27;;
17725;SDS011;8983;53.156;17.960;2024-02-15T00:45:27;16.83;;;9.00;;
17725;SDS011;8983;53.156;17.960;2024-02-15T00:47:55;20.03;;;10.10;;
17725;SDS011;8983;53.156;17.960;2024-02-15T00:50:24;18.30;;;9.73;;
17725;SDS011;8983;53.156;17.960;2024-02-15T00:52:52;19.97;;;10.03;;
17725;SDS011;8983;53.156;17.960;2024-02-15T00:55:20;24.53;;;10.23;;
17725;SDS011;8983;53.156;17.960;2024-02-15T00:57:50;18.60;;;10.10;;
17725;SDS011;8983;53.156;17.960;2024-02-15T01:00:18;14.30;;;9.17;;
17725;SDS011;8983;53.156;17.960;2024-02-15T01:02:47;12.67;;;7.53;;
17725;SDS011;8983;53.156;17.960;2024-02-15T01:05:15;12.60;;;8.63;;
17725;SDS011;8983;53.156;17.960;2024-02-15T01:07:44;9.10;;;8.00;;
17725;SDS011;8983;53.156;17.960;2024-02-15T01:10:15;10.97;;;6.93;;
17725;SDS011;8983;53.156;17.960;2024-02-15T01:12:44;15.40;;;8.93;;
17725;SDS011;8983;53.156;17.960;2024-02-15T01:15:13;16.17;;;7.07;;
17725;SDS011;8983;53.156;17.960;2024-02-15T01:17:44;16.33;;;8.43;;
17725;SDS011;8983;53.156;17.960;2024-02-15T01:20:13;11.77;;;9.03;;
17725;SDS011;8983;53.156;17.960;2024-02-15T01:22:41;15.13;;;7.87;;
17725;SDS011;8983;53.156;17.960;2024-02-15T01:25:11;15.30;;;10.37;;
17725;SDS011;8983;53.156;17.960;2024-02-15T01:27:41;16.47;;;9.67;;
17725;SDS011;8983;53.156;17.960;2024-02-15T01:30:10;21.73;;;9.07;;
17725;SDS011;8983;53.156;17.960;2024-02-15T01:32:41;17.90;;;9.13;;
17725;SDS011;8983;53.156;17.960;2024-02-15T01:35:09;13.47;;;7.70;;
17725;SDS011;8983;53.156;17.960;2024-02-15T01:37:37;13.90;;;9.27;;
17725;SDS011;8983;53.156;17.960;2024-02-15T01:40:06;15.20;;;9.00;;
17725;SDS011;8983;53.156;17.960;2024-02-15T01:42:39;13.87;;;8.47;;
17725;SDS011;8983;53.156;17.960;2024-02-15T01:45:07;17.40;;;9.10;;
17725;SDS011;8983;53.156;17.960;2024-02-15T01:47:38;16.03;;;9.00;;
17725;SDS011;8983;53.156;17.960;2024-02-15T01:50:09;19.93;;;9.60;;
17725;SDS011;8983;53.156;17.960;2024-02-15T01:52:39;14.73;;;7.87;;
17725;SDS011;8983;53.156;17.960;2024-02-15T01:55:13;16.47;;;9.53;;
17725;SDS011;8983;53.156;17.960;2024-02-15T01:57:43;16.27;;;8.90;;
17725;SDS011;8983;53.156;17.960;2024-02-15T02:00:12;12.60;;;7.13;;
17725;SDS011;8983;53.156;17.960;2024-02-15T02:02:43;18.80;;;9.47;;
17725;SDS011;8983;53.156;17.960;2024-02-15T02:05:13;12.80;;;7.77;;
17725;SDS011;8983;53.156;17.960;2024-02-15T02:07:42;13.87;;;8.53;;
17725;SDS011;8983;53.156;17.960;2024-02-15T02:10:10;15.07;;;7.97;;
17725;SDS011;8983;53.156;17.960;2024-02-15T02:12:40;10.33;;;7.47;;
17725;SDS011;8983;53.156;17.960;2024-02-15T02:15:09;17.73;;;9.47;;
17725;SDS011;8983;53.156;17.960;2024-02-15T02:17:38;12.80;;;8.00;;
17725;SDS011;8983;53.156;17.960;2024-02-15T02:20:07;11.00;;;7.50;;
17725;SDS011;8983;53.156;17.960;2024-02-15T02:22:41;10.97;;;6.43;;
17725;SDS011;8983;53.156;17.960;2024-02-15T02:25:15;12.03;;;7.20;;
17725;SDS011;8983;53.156;17.960;2024-02-15T02:27:44;15.43;;;8.00;;
17725;SDS011;8983;53.156;17.960;2024-02-15T02:30:14;16.33;;;8.17;;
17725;SDS011;8983;53.156;17.960;2024-02-15T02:32:45;16.37;;;8.33;;
17725;SDS011;8983;53.156;17.960;2024-02-15T02:35:13;10.73;;;5.90;;
17725;SDS011;8983;53.156;17.960;2024-02-15T02:37:42;13.17;;;7.73;;
17725;SDS011;8983;53.156;17.960;2024-02-15T02:40:11;7.60;;;6.27;;
17725;SDS011;8983;53.156;17.960;2024-02-15T02:42:47;13.00;;;6.63;;
17725;SDS011;8983;53.156;17.960;2024-02-15T02:45:17;8.73;;;6.27;;
17725;SDS011;8983;53.156;17.960;2024-02-15T02:47:49;15.93;;;7.73;;
17725;SDS011;8983;53.156;17.960;2024-02-15T02:50:20;9.27;;;6.97;;
17725;SDS011;8983;53.156;17.960;2024-02-15T02:52:49;10.77;;;6.33;;
17725;SDS011;8983;53.156;17.960;2024-02-15T02:55:18;10.13;;;7.10;;
17725;SDS011;8983;53.156;17.960;2024-02-15T02:57:48;12.77;;;8.07;;
17725;SDS011;8983;53.156;17.960;2024-02-15T03:00:17;13.77;;;8.80;;
17725;SDS011;8983;53.156;17.960;2024-02-15T03:02:46;9.33;;;6.70;;
17725;SDS011;8983;53.156;17.960;2024-02-15T03:05:15;14.60;;;8.00;;
17725;SDS011;8983;53.156;17.960;2024-02-15T03:07:47;11.50;;;7.43;;
17725;SDS011;8983;53.156;17.960;2024-02-15T03:10:18;15.00;;;8.10;;
17725;SDS011;8983;53.156;17.960;2024-02-15T03:12:46;22.27;;;8.73;;
17725;SDS011;8983;53.156;17.960;2024-02-15T03:15:16;11.53;;;7.83;;
17725;SDS011;8983;53.156;17.960;2024-02-15T03:17:46;15.47;;;8.93;;
17725;SDS011;8983;53.156;17.960;2024-02-15T03:20:15;10.60;;;6.67;;
17725;SDS011;8983;53.156;17.960;2024-02-15T03:22:52;13.07;;;8.50;;
17725;SDS011;8983;53.156;17.960;2024-02-15T03:25:21;12.53;;;8.30;;
17725;SDS011;8983;53.156;17.960;2024-02-15T03:27:51;5.60;;;4.93;;
17725;SDS011;8983;53.156;17.960;2024-02-15T03:30:22;17.73;;;7.97;;
17725;SDS011;8983;53.156;17.960;2024-02-15T03:32:51;9.27;;;6.63;;
17725;SDS011;8983;53.156;17.960;2024-02-15T03:35:21;10.03;;;6.00;;
17725;SDS011;8983;53.156;17.960;2024-02-15T03:37:50;8.57;;;6.77;;
17725;SDS011;8983;53.156;17.960;2024-02-15T03:40:19;12.90;;;5.93;;
17725;SDS011;8983;53.156;17.960;2024-02-15T03:42:47;14.70;;;7.23;;
17725;SDS011;8983;53.156;17.960;2024-02-15T03:45:16;11.50;;;7.30;;
17725;SDS011;8983;53.156;17.960;2024-02-15T03:47:46;12.87;;;7.83;;
17725;SDS011;8983;53.156;17.960;2024-02-15T03:50:16;16.07;;;8.90;;
17725;SDS011;8983;53.156;17.960;2024-02-15T03:52:45;17.40;;;8.93;;
17725;SDS011;8983;53.156;17.960;2024-02-15T03:55:13;13.93;;;8.30;;
17725;SDS011;8983;53.156;17.960;2024-02-15T03:57:42;16.07;;;9.63;;
17725;SDS011;8983;53.156;17.960;2024-02-15T04:00:11;18.47;;;10.03;;
17725;SDS011;8983;53.156;17.960;2024-02-15T04:02:42;10.60;;;6.43;;
17725;SDS011;8983;53.156;17.960;2024-02-15T04:05:12;16.63;;;8.70;;
17725;SDS011;8983;53.156;17.960;2024-02-15T04:07:40;14.23;;;9.30;;
17725;SDS011;8983;53.156;17.960;2024-02-15T04:10:09;13.17;;;7.20;;
17725;SDS011;8983;53.156;17.960;2024-02-15T04:12:38;10.80;;;6.80;;
17725;SDS011;8983;53.156;17.960;2024-02-15T04:15:09;15.37;;;8.63;;
17725;SDS011;8983;53.156;17.960;2024-02-15T04:17:41;9.00;;;7.17;;
17725;SDS011;8983;53.156;17.960;2024-02-15T04:20:13;10.67;;;6.63;;
17725;SDS011;8983;53.156;17.960;2024-02-15T04:22:43;14.70;;;9.67;;
17725;SDS011;8983;53.156;17.960;2024-02-15T04:25:14;14.60;;;9.73;;
17725;SDS011;8983;53.156;17.960;2024-02-15T04:27:44;17.57;;;8.43;;
17725;SDS011;8983;53.156;17.960;2024-02-15T04:30:13;16.27;;;8.47;;
17725;SDS011;8983;53.156;17.960;2024-02-15T04:32:43;12.70;;;8.43;;
17725;SDS011;8983;53.156;17.960;2024-02-15T04:35:15;13.73;;;7.87;;
17725;SDS011;8983;53.156;17.960;2024-02-15T04:37:43;12.93;;;7.63;;
17725;SDS011;8983;53.156;17.960;2024-02-15T04:40:13;15.37;;;7.47;;
17725;SDS011;8983;53.156;17.960;2024-02-15T04:42:41;17.03;;;8.97;;
17725;SDS011;8983;53.156;17.960;2024-02-15T04:45:12;14.93;;;10.30;;
17725;SDS011;8983;53.156;17.960;2024-02-15T04:47:42;13.03;;;8.93;;
17725;SDS011;8983;53.156;17.960;2024-02-15T04:50:14;14.30;;;7.70;;
17725;SDS011;8983;53.156;17.960;2024-02-15T04:52:45;18.97;;;11.00;;
17725;SDS011;8983;53.156;17.960;2024-02-15T04:55:15;17.13;;;10.77;;
17725;SDS011;8983;53.156;17.960;2024-02-15T04:57:44;22.07;;;11.47;;
17725;SDS011;8983;53.156;17.960;2024-02-15T05:00:14;24.10;;;11.33;;
17725;SDS011;8983;53.156;17.960;2024-02-15T05:02:43;18.13;;;9.63;;
17725;SDS011;8983;53.156;17.960;2024-02-15T05:05:12;16.33;;;11.33;;
17725;SDS011;8983;53.156;17.960;2024-02-15T05:07:43;14.87;;;8.70;;
17725;SDS011;8983;53.156;17.960;2024-02-15T05:10:11;12.10;;;7.90;;
17725;SDS011;8983;53.156;17.960;2024-02-15T05:12:41;14.40;;;7.80;;
17725;SDS011;8983;53.156;17.960;2024-02-15T05:15:10;11.80;;;8.53;;
17725;SDS011;8983;53.156;17.960;2024-02-15T05:17:39;21.47;;;10.43;;
17725;SDS011;8983;53.156;17.960;2024-02-15T05:20:09;17.07;;;9.27;;
17725;SDS011;8983;53.156;17.960;2024-02-15T05:22:40;17.57;;;10.33;;
17725;SDS011;8983;53.156;17.960;2024-02-15T05:25:18;16.53;;;9.77;;
17725;SDS011;8983;53.156;17.960;2024-02-15T05:27:52;15.00;;;9.10;;
17725;SDS011;8983;53.156;17.960;2024-02-15T05:30:22;22.33;;;11.83;;
17725;SDS011;8983;53.156;17.960;2024-02-15T05:32:51;13.03;;;8.20;;
17725;SDS011;8983;53.156;17.960;2024-02-15T05:35:21;19.40;;;13.53;;
17725;SDS011;8983;53.156;17.960;2024-02-15T05:37:50;14.97;;;9.90;;
17725;SDS011;8983;53.156;17.960;2024-02-15T05:40:21;25.30;;;12.17;;
17725;SDS011;8983;53.156;17.960;2024-02-15T05:42:54;17.73;;;11.70;;
17725;SDS011;8983;53.156;17.960;2024-02-15T05:45:30;16.37;;;11.43;;
17725;SDS011;8983;53.156;17.960;2024-02-15T05:48:03;25.37;;;11.70;;
17725;SDS011;8983;53.156;17.960;2024-02-15T05:50:35;24.30;;;14.23;;
17725;SDS011;8983;53.156;17.960;2024-02-15T05:53:03;20.10;;;10.70;;
17725;SDS011;8983;53.156;17.960;2024-02-15T05:55:35;23.77;;;13.20;;
17725;SDS011;8983;53.156;17.960;2024-02-15T05:58:07;19.43;;;10.27;;
17725;SDS011;8983;53.156;17.960;2024-02-15T06:00:37;19.17;;;11.03;;
17725;SDS011;8983;53.156;17.960;2024-02-15T06:03:08;17.60;;;12.40;;
17725;SDS011;8983;53.156;17.960;2024-02-15T06:05:37;19.77;;;11.93;;
17725;SDS011;8983;53.156;17.960;2024-02-15T06:08:06;19.37;;;12.07;;
17725;SDS011;8983;53.156;17.960;2024-02-15T06:10:35;23.90;;;11.70;;
17725;SDS011;8983;53.156;17.960;2024-02-15T06:13:04;14.80;;;9.23;;
17725;SDS011;8983;53.156;17.960;2024-02-15T06:15:32;22.73;;;11.57;;
17725;SDS011;8983;53.156;17.960;2024-02-15T06:18:00;33.93;;;12.63;;
17725;SDS011;8983;53.156;17.960;2024-02-15T06:20:29;31.67;;;12.77;;
17725;SDS011;8983;53.156;17.960;2024-02-15T06:23:00;20.67;;;10.80;;
17725;SDS011;8983;53.156;17.960;2024-02-15T06:25:31;22.60;;;11.47;;
17725;SDS011;8983;53.156;17.960;2024-02-15T06:28:01;18.10;;;11.30;;
17725;SDS011;8983;53.156;17.960;2024-02-15T06:30:40;13.20;;;10.83;;
17725;SDS011;8983;53.156;17.960;2024-02-15T06:33:25;11.40;;;9.60;;
17725;SDS011;8983;53.156;17.960;2024-02-15T06:36:12;21.07;;;13.03;;
17725;SDS011;8983;53.156;17.960;2024-02-15T06:38:57;22.97;;;11.40;;
17725;SDS011;8983;53.156;17.960;2024-02-15T06:41:43;20.83;;;11.03;;
17725;SDS011;8983;53.156;17.960;2024-02-15T06:44:12;25.40;;;12.30;;
17725;SDS011;8983;53.156;17.960;2024-02-15T06:46:40;16.00;;;10.30;;
17725;SDS011;8983;53.156;17.960;2024-02-15T06:49:08;22.87;;;13.33;;
17725;SDS011;8983;53.156;17.960;2024-02-15T06:51:36;20.83;;;11.43;;
17725;SDS011;8983;53.156;17.960;2024-02-15T06:54:05;13.73;;;9.50;;
17725;SDS011;8983;53.156;17.960;2024-02-15T06:56:35;13.53;;;9.43;;
17725;SDS011;8983;53.156;17.960;2024-02-15T06:59:06;17.93;;;11.73;;
17725;SDS011;8983;53.156;17.960;2024-02-15T07:01:37;20.57;;;11.03;;
17725;SDS011;8983;53.156;17.960;2024-02-15T07:04:05;17.60;;;12.20;;
17725;SDS011;8983;53.156;17.960;2024-02-15T07:06:36;20.57;;;10.57;;
17725;SDS011;8983;53.156;17.960;2024-02-15T07:09:05;19.73;;;11.57;;
17725;SDS011;8983;53.156;17.960;2024-02-15T07:11:34;21.73;;;12.30;;
17725;SDS011;8983;53.156;17.960;2024-02-15T07:14:02;21.80;;;12.37;;
17725;SDS011;8983;53.156;17.960;2024-02-15T07:16:33;27.90;;;12.30;;
17725;SDS011;8983;53.156;17.960;2024-02-15T07:19:03;20.00;;;12.27;;
17725;SDS011;8983;53.156;17.960;2024-02-15T07:21:32;13.73;;;9.77;;
17725;SDS011;8983;53.156;17.960;2024-02-15T07:24:01;14.73;;;10.10;;
17725;SDS011;8983;53.156;17.960;2024-02-15T07:26:31;21.87;;;12.00;;
17725;SDS011;8983;53.156;17.960;2024-02-15T07:29:01;22.27;;;12.17;;
17725;SDS011;8983;53.156;17.960;2024-02-15T07:31:32;22.37;;;13.13;;
17725;SDS011;8983;53.156;17.960;2024-02-15T07:34:02;16.53;;;9.60;;
17725;SDS011;8983;53.156;17.960;2024-02-15T07:36:31;17.83;;;11.97;;
17725;SDS011;8983;53.156;17.960;2024-02-15T07:38:59;22.07;;;12.30;;
17725;SDS011;8983;53.156;17.960;2024-02-15T07:41:30;21.23;;;11.50;;
17725;SDS011;8983;53.156;17.960;2024-02-15T07:44:00;21.07;;;12.37;;
17725;SDS011;8983;53.156;17.960;2024-02-15T07:46:28;22.73;;;12.17;;
17725;SDS011;8983;53.156;17.960;2024-02-15T07:48:56;19.00;;;11.60;;
17725;SDS011;8983;53.156;17.960;2024-02-15T07:51:27;21.67;;;11.47;;
17725;SDS011;8983;53.156;17.960;2024-02-15T07:53:55;20.13;;;12.60;;
17725;SDS011;8983;53.156;17.960;2024-02-15T07:56:24;12.27;;;9.37;;
17725;SDS011;8983;53.156;17.960;2024-02-15T07:58:52;18.23;;;11.83;;
17725;SDS011;8983;53.156;17.960;2024-02-15T08:01:21;24.23;;;11.27;;
17725;SDS011;8983;53.156;17.960;2024-02-15T08:03:51;20.13;;;13.23;;
17725;SDS011;8983;53.156;17.960;2024-02-15T08:06:21;28.80;;;11.90;;
17725;SDS011;8983;53.156;17.960;2024-02-15T08:08:53;20.10;;;13.27;;
17725;SDS011;8983;53.156;17.960;2024-02-15T08:11:22;17.30;;;11.27;;
17725;SDS011;8983;53.156;17.960;2024-02-15T08:13:52;16.60;;;11.37;;
17725;SDS011;8983;53.156;17.960;2024-02-15T08:16:25;20.00;;;13.77;;
17725;SDS011;8983;53.156;17.960;2024-02-15T08:18:54;16.37;;;9.87;;
17725;SDS011;8983;53.156;17.960;2024-02-15T08:21:27;28.07;;;12.13;;
17725;SDS011;8983;53.156;17.960;2024-02-15T08:24:01;26.73;;;12.47;;
17725;SDS011;8983;53.156;17.960;2024-02-15T08:26:32;22.53;;;14.40;;
17725;SDS011;8983;53.156;17.960;2024-02-15T08:29:02;22.80;;;14.07;;
17725;SDS011;8983;53.156;17.960;2024-02-15T08:31:30;21.53;;;12.97;;
17725;SDS011;8983;53.156;17.960;2024-02-15T08:33:59;27.97;;;15.70;;
17725;SDS011;8983;53.156;17.960;2024-02-15T08:36:27;30.87;;;15.97;;
17725;SDS011;8983;53.156;17.960;2024-02-15T08:38:57;27.83;;;14.27;;
17725;SDS011;8983;53.156;17.960;2024-02-15T08:41:27;27.33;;;13.33;;
17725;SDS011;8983;53.156;17.960;2024-02-15T08:43:55;19.90;;;11.57;;
17725;SDS011;8983;53.156;17.960;2024-02-15T08:46:24;15.03;;;9.83;;
17725;SDS011;8983;53.156;17.960;2024-02-15T08:48:53;18.97;;;12.63;;
17725;SDS011;8983;53.156;17.960;2024-02-15T08:51:22;26.57;;;11.67;;
17725;SDS011;8983;53.156;17.960;2024-02-15T08:53:51;33.90;;;13.80;;
17725;SDS011;8983;53.156;17.960;2024-02-15T08:56:19;19.63;;;12.87;;
17725;SDS011;8983;53.156;17.960;2024-02-15T08:58:50;25.80;;;13.23;;
17725;SDS011;8983;53.156;17.960;2024-02-15T09:01:19;29.53;;;14.53;;
17725;SDS011;8983;53.156;17.960;2024-02-15T09:03:47;22.90;;;14.07;;
17725;SDS011;8983;53.156;17.960;2024-02-15T09:06:15;28.80;;;16.67;;
17725;SDS011;8983;53.156;17.960;2024-02-15T09:08:44;30.67;;;14.60;;
17725;SDS011;8983;53.156;17.960;2024-02-15T09:11:14;21.60;;;12.63;;
17725;SDS011;8983;53.156;17.960;2024-02-15T09:13:43;17.27;;;11.83;;
17725;SDS011;8983;53.156;17.960;2024-02-15T09:16:12;15.53;;;10.40;;
17725;SDS011;8983;53.156;17.960;2024-02-15T09:18:40;20.70;;;11.47;;
17725;SDS011;8983;53.156;17.960;2024-02-15T09:21:12;18.23;;;12.23;;
17725;SDS011;8983;53.156;17.960;2024-02-15T09:23:41;22.03;;;12.60;;
17725;SDS011;8983;53.156;17.960;2024-02-15T09:26:09;21.30;;;10.63;;
17725;SDS011;8983;53.156;17.960;2024-02-15T09:28:39;22.27;;;11.27;;
17725;SDS011;8983;53.156;17.960;2024-02-15T09:31:07;19.27;;;12.23;;
17725;SDS011;8983;53.156;17.960;2024-02-15T09:33:39;18.27;;;10.70;;
17725;SDS011;8983;53.156;17.960;2024-02-15T09:36:08;26.80;;;13.63;;
17725;SDS011;8983;53.156;17.960;2024-02-15T09:38:36;25.33;;;11.87;;
17725;SDS011;8983;53.156;17.960;2024-02-15T09:41:04;14.27;;;8.77;;
17725;SDS011;8983;53.156;17.960;2024-02-15T09:43:34;10.83;;;9.70;;
17725;SDS011;8983;53.156;17.960;2024-02-15T09:46:03;19.40;;;9.83;;
17725;SDS011;8983;53.156;17.960;2024-02-15T09:48:31;15.70;;;9.97;;
17725;SDS011;8983;53.156;17.960;2024-02-15T09:51:03;21.23;;;12.97;;
17725;SDS011;8983;53.156;17.960;2024-02-15T09:53:31;31.10;;;11.07;;
17725;SDS011;8983;53.156;17.960;2024-02-15T09:56:01;22.53;;;12.87;;
17725;SDS011;8983;53.156;17.960;2024-02-15T09:58:32;25.90;;;14.67;;
17725;SDS011;8983;53.156;17.960;2024-02-15T10:01:01;23.13;;;12.83;;
17725;SDS011;8983;53.156;17.960;2024-02-15T10:03:37;31.10;;;12.73;;
17725;SDS011;8983;53.156;17.960;2024-02-15T10:06:08;21.60;;;11.77;;
17725;SDS011;8983;53.156;17.960;2024-02-15T10:08:37;17.63;;;9.77;;
17725;SDS011;8983;53.156;17.960;2024-02-15T10:11:06;17.20;;;10.67;;
17725;SDS011;8983;53.156;17.960;2024-02-15T10:13:36;23.30;;;10.73;;
17725;SDS011;8983;53.156;17.960;2024-02-15T10:16:13;17.13;;;10.33;;
17725;SDS011;8983;53.156;17.960;2024-02-15T10:18:43;15.90;;;9.27;;
17725;SDS011;8983;53.156;17.960;2024-02-15T10:24:04;17.87;;;9.90;;
17725;SDS011;8983;53.156;17.960;2024-02-15T10:26:34;17.80;;;10.67;;
17725;SDS011;8983;53.156;17.960;2024-02-15T10:29:06;14.50;;;10.97;;
17725;SDS011;8983;53.156;17.960;2024-02-15T10:31:38;22.90;;;12.80;;
17725;SDS011;8983;53.156;17.960;2024-02-15T10:34:08;20.57;;;12.47;;
17725;SDS011;8983;53.156;17.960;2024-02-15T10:36:39;21.50;;;13.60;;
17725;SDS011;8983;53.156;17.960;2024-02-15T10:39:10;25.57;;;16.77;;
17725;SDS011;8983;53.156;17.960;2024-02-15T10:41:44;25.67;;;16.37;;
17725;SDS011;8983;53.156;17.960;2024-02-15T10:44:15;28.23;;;12.60;;
17725;SDS011;8983;53.156;17.960;2024-02-15T10:46:45;23.57;;;13.30;;
17725;SDS011;8983;53.156;17.960;2024-02-15T10:49:21;20.83;;;12.77;;
17725;SDS011;8983;53.156;17.960;2024-02-15T10:51:54;27.03;;;14.83;;
17725;SDS011;8983;53.156;17.960;2024-02-15T10:54:34;16.67;;;11.23;;
17725;SDS011;8983;53.156;17.960;2024-02-15T10:57:11;25.20;;;13.37;;
17725;SDS011;8983;53.156;17.960;2024-02-15T10:59:43;19.13;;;12.87;;
17725;SDS011;8983;53.156;17.960;2024-02-15T11:02:23;20.90;;;12.77;;
17725;SDS011;8983;53.156;17.960;2024-02-15T11:05:02;18.90;;;12.53;;
17725;SDS011;8983;53.156;17.960;2024-02-15T11:07:37;22.40;;;13.40;;
17725;SDS011;8983;53.156;17.960;2024-02-15T11:10:06;24.70;;;13.70;;
17725;SDS011;8983;53.156;17.960;2024-02-15T11:12:37;23.60;;;12.70;;
17725;SDS011;8983;53.156;17.960;2024-02-15T11:15:08;16.83;;;12.30;;
17725;SDS011;8983;53.156;17.960;2024-02-15T11:17:44;10.73;;;6.90;;
17725;SDS011;8983;53.156;17.960;2024-02-15T11:23:27;28.93;;;11.60;;
17725;SDS011;8983;53.156;17.960;2024-02-15T11:26:03;21.07;;;13.03;;
17725;SDS011;8983;53.156;17.960;2024-02-15T11:28:43;22.57;;;11.57;;
17725;SDS011;8983;53.156;17.960;2024-02-15T11:40:24;182.57;;;66.93;;
17725;SDS011;8983;53.156;17.960;2024-02-15T11:42:53;351.63;;;110.37;;
17725;SDS011;8983;53.156;17.960;2024-02-15T11:45:24;131.37;;;46.63;;
17725;SDS011;8983;53.156;17.960;2024-02-15T11:47:53;80.83;;;25.07;;
17725;SDS011;8983;53.156;17.960;2024-02-15T11:50:22;71.67;;;30.83;;
17725;SDS011;8983;53.156;17.960;2024-02-15T11:52:51;43.00;;;21.23;;
17725;SDS011;8983;53.156;17.960;2024-02-15T11:55:20;47.90;;;22.93;;
17725;SDS011;8983;53.156;17.960;2024-02-15T11:57:57;42.63;;;21.23;;
17725;SDS011;8983;53.156;17.960;2024-02-15T12:00:32;45.83;;;19.63;;
17725;SDS011;8983;53.156;17.960;2024-02-15T12:03:18;22.73;;;12.83;;
17725;SDS011;8983;53.156;17.960;2024-02-15T12:06:06;47.50;;;19.10;;
17725;SDS011;8983;53.156;17.960;2024-02-15T12:08:53;18.83;;;9.20;;
17725;SDS011;8983;53.156;17.960;2024-02-15T12:11:40;17.93;;;9.17;;
17725;SDS011;8983;53.156;17.960;2024-02-15T12:14:39;20.23;;;10.47;;
17725;SDS011;8983;53.156;17.960;2024-02-15T12:17:26;23.43;;;13.93;;
17725;SDS011;8983;53.156;17.960;2024-02-15T12:20:12;18.47;;;11.77;;
17725;SDS011;8983;53.156;17.960;2024-02-15T12:22:41;18.47;;;11.53;;
17725;SDS011;8983;53.156;17.960;2024-02-15T12:25:13;24.53;;;10.67;;
17725;SDS011;8983;53.156;17.960;2024-02-15T12:27:43;16.27;;;10.70;;
17725;SDS011;8983;53.156;17.960;2024-02-15T12:30:14;17.17;;;10.30;;
17725;SDS011;8983;53.156;17.960;2024-02-15T12:32:46;20.97;;;13.67;;
17725;SDS011;8983;53.156;17.960;2024-02-15T12:35:17;15.00;;;10.93;;
17725;SDS011;8983;53.156;17.960;2024-02-15T12:37:49;21.83;;;10.50;;
17725;SDS011;8983;53.156;17.960;2024-02-15T12:40:31;18.63;;;8.67;;
17725;SDS011;8983;53.156;17.960;2024-02-15T12:43:01;24.80;;;12.33;;
17725;SDS011;8983;53.156;17.960;2024-02-15T12:45:35;39.30;;;17.67;;
17725;SDS011;8983;53.156;17.960;2024-02-15T12:48:04;28.37;;;14.13;;
17725;SDS011;8983;53.156;17.960;2024-02-15T12:50:33;24.57;;;13.73;;
17725;SDS011;8983;53.156;17.960;2024-02-15T12:53:02;31.07;;;17.07;;
17725;SDS011;8983;53.156;17.960;2024-02-15T12:55:33;26.67;;;13.77;;
17725;SDS011;8983;53.156;17.960;2024-02-15T12:58:02;28.53;;;15.53;;
17725;SDS011;8983;53.156;17.960;2024-02-15T13:00:36;35.30;;;15.70;;
17725;SDS011;8983;53.156;17.960;2024-02-15T13:03:08;29.60;;;15.83;;
17725;SDS011;8983;53.156;17.960;2024-02-15T13:05:38;29.73;;;14.63;;
17725;SDS011;8983;53.156;17.960;2024-02-15T13:08:07;47.47;;;19.80;;
17725;SDS011;8983;53.156;17.960;2024-02-15T13:10:41;47.37;;;19.37;;
17725;SDS011;8983;53.156;17.960;2024-02-15T13:13:09;59.07;;;23.83;;
17725;SDS011;8983;53.156;17.960;2024-02-15T13:15:39;35.57;;;16.27;;
17725;SDS011;8983;53.156;17.960;2024-02-15T13:18:08;27.10;;;12.73;;
17725;SDS011;8983;53.156;17.960;2024-02-15T13:20:40;44.63;;;20.77;;
17725;SDS011;8983;53.156;17.960;2024-02-15T13:23:09;34.17;;;15.07;;
17725;SDS011;8983;53.156;17.960;2024-02-15T13:25:42;59.90;;;21.83;;
17725;SDS011;8983;53.156;17.960;2024-02-15T13:28:11;35.40;;;14.60;;
17725;SDS011;8983;53.156;17.960;2024-02-15T13:30:42;55.30;;;20.13;;
17725;SDS011;8983;53.156;17.960;2024-02-15T13:33:12;39.37;;;15.63;;
17725;SDS011;8983;53.156;17.960;2024-02-15T13:35:41;43.07;;;18.33;;
17725;SDS011;8983;53.156;17.960;2024-02-15T13:38:09;49.83;;;20.00;;
17725;SDS011;8983;53.156;17.960;2024-02-15T13:40:42;150.40;;;42.97;;
17725;SDS011;8983;53.156;17.960;2024-02-15T13:43:11;96.43;;;34.40;;
17725;SDS011;8983;53.156;17.960;2024-02-15T13:45:40;86.13;;;34.63;;
17725;SDS011;8983;53.156;17.960;2024-02-15T13:48:10;120.07;;;36.10;;
17725;SDS011;8983;53.156;17.960;2024-02-15T13:50:41;143.80;;;43.73;;
17725;SDS011;8983;53.156;17.960;2024-02-15T13:53:11;54.50;;;25.97;;
17725;SDS011;8983;53.156;17.960;2024-02-15T13:55:40;77.43;;;29.13;;
17725;SDS011;8983;53.156;17.960;2024-02-15T13:58:09;53.63;;;25.47;;
17725;SDS011;8983;53.156;17.960;2024-02-15T14:00:39;39.93;;;22.33;;
17725;SDS011;8983;53.156;17.960;2024-02-15T14:03:10;40.50;;;21.77;;
17725;SDS011;8983;53.156;17.960;2024-02-15T14:05:42;40.83;;;20.70;;
17725;SDS011;8983;53.156;17.960;2024-02-15T14:08:11;38.57;;;20.77;;
17725;SDS011;8983;53.156;17.960;2024-02-15T14:10:39;172.80;;;56.17;;
17725;SDS011;8983;53.156;17.960;2024-02-15T14:13:07;58.57;;;27.70;;
17725;SDS011;8983;53.156;17.960;2024-02-15T14:15:37;52.43;;;25.17;;
17725;SDS011;8983;53.156;17.960;2024-02-15T14:18:09;48.83;;;24.47;;
17725;SDS011;8983;53.156;17.960;2024-02-15T14:20:41;70.30;;;31.23;;
17725;SDS011;8983;53.156;17.960;2024-02-15T14:23:10;53.37;;;26.50;;
17725;SDS011;8983;53.156;17.960;2024-02-15T14:25:41;90.70;;;36.97;;
17725;SDS011;8983;53.156;17.960;2024-02-15T14:28:09;88.73;;;34.63;;
17725;SDS011;8983;53.156;17.960;2024-02-15T14:30:39;62.10;;;26.97;;
17725;SDS011;8983;53.156;17.960;2024-02-15T14:33:26;203.20;;;61.37;;
17725;SDS011;8983;53.156;17.960;2024-02-15T14:35:57;102.07;;;36.70;;
17725;SDS011;8983;53.156;17.960;2024-02-15T14:38:27;286.93;;;75.80;;
17725;SDS011;8983;53.156;17.960;2024-02-15T14:40:56;310.33;;;82.77;;
17725;SDS011;8983;53.156;17.960;2024-02-15T14:43:26;73.40;;;30.07;;
17725;SDS011;8983;53.156;17.960;2024-02-15T14:45:55;105.03;;;34.80;;
17725;SDS011;8983;53.156;17.960;2024-02-15T14:48:24;153.50;;;44.20;;
17725;SDS011;8983;53.156;17.960;2024-02-15T14:50:54;59.57;;;25.73;;
17725;SDS011;8983;53.156;17.960;2024-02-15T14:53:24;141.53;;;38.80;;
17725;SDS011;8983;53.156;17.960;2024-02-15T14:55:53;124.87;;;36.77;;
17725;SDS011;8983;53.156;17.960;2024-02-15T14:58:21;67.87;;;24.07;;
17725;SDS011;8983;53.156;17.960;2024-02-15T15:00:50;58.73;;;23.33;;